sensor_id;sensor_type;location;lat;lon;timestamp;temperature;humidity
29939;DHT22;16799;50.844;5.304;2024-01-06T00:00:30;6.90;99.90
29939;DHT22;16799;50.844;5.304;2024-01-06T00:02:55;7.00;99.90
29939;DHT22;16799;50.844;5.304;2024-01-06T00:05:21;7.00;99.90
29939;DHT22;16799;50.844;5.304;2024-01-06T00:07:47;6.90;99.90
29939;DHT22;16799;50.844;5.304;2024-01-06T00:10:12;7.00;99.90
29939;DHT22;16799;50.844;5.304;2024-01-06T00:12:38;7.00;99.90
29939;DHT22;16799;50.844;5.304;2024-01-06T00:15:04;6.90;99.90
29939;DHT22;16799;50.844;5.304;2024-01-06T00:17:30;6.90;99.90
29939;DHT22;16799;50.844;5.304;2024-01-06T00:19:56;6.90;99.90
29939;DHT22;16799;50.844;5.304;2024-01-06T00:22:21;6.90;99.90
29939;DHT22;16799;50.844;5.304;2024-01-06T00:24:47;6.90;99.90
29939;DHT22;16799;50.844;5.304;2024-01-06T00:27:13;6.90;99.90
29939;DHT22;16799;50.844;5.304;2024-01-06T00:29:40;6.90;99.90
29939;DHT22;16799;50.844;5.304;2024-01-06T00:32:06;6.90;99.90
29939;DHT22;16799;50.844;5.304;2024-01-06T00:34:31;6.90;99.90
29939;DHT22;16799;50.844;5.304;2024-01-06T00:36:57;6.90;99.90
29939;DHT22;16799;50.844;5.304;2024-01-06T00:39:23;6.90;99.90
29939;DHT22;16799;50.844;5.304;2024-01-06T00:41:48;6.90;99.90
29939;DHT22;16799;50.844;5.304;2024-01-06T00:44:14;6.90;99.90
29939;DHT22;16799;50.844;5.304;2024-01-06T00:46:39;6.90;99.90
29939;DHT22;16799;50.844;5.304;2024-01-06T00:49:05;6.90;99.90
29939;DHT22;16799;50.844;5.304;2024-01-06T00:51:31;6.90;99.90
29939;DHT22;16799;50.844;5.304;2024-01-06T00:53:56;6.90;99.90
29939;DHT22;16799;50.844;5.304;2024-01-06T00:56:22;6.80;99.90
29939;DHT22;16799;50.844;5.304;2024-01-06T00:58:48;6.80;99.90
29939;DHT22;16799;50.844;5.304;2024-01-06T01:01:14;6.80;99.90
29939;DHT22;16799;50.844;5.304;2024-01-06T01:03:39;6.80;99.90
29939;DHT22;16799;50.844;5.304;2024-01-06T01:06:05;6.80;99.90
29939;DHT22;16799;50.844;5.304;2024-01-06T01:08:31;6.80;99.90
29939;DHT22;16799;50.844;5.304;2024-01-06T01:10:57;6.80;99.90
29939;DHT22;16799;50.844;5.304;2024-01-06T01:13:23;6.80;99.90
29939;DHT22;16799;50.844;5.304;2024-01-06T01:15:49;6.80;99.90
29939;DHT22;16799;50.844;5.304;2024-01-06T01:18:14;6.80;99.90
29939;DHT22;16799;50.844;5.304;2024-01-06T01:20:40;6.70;99.90
29939;DHT22;16799;50.844;5.304;2024-01-06T01:23:09;6.70;99.90
29939;DHT22;16799;50.844;5.304;2024-01-06T01:25:35;6.70;99.90
29939;DHT22;16799;50.844;5.304;2024-01-06T01:28:00;6.70;99.90
29939;DHT22;16799;50.844;5.304;2024-01-06T01:30:26;6.80;99.90
29939;DHT22;16799;50.844;5.304;2024-01-06T01:32:52;6.70;99.90
29939;DHT22;16799;50.844;5.304;2024-01-06T01:35:18;6.80;99.90
29939;DHT22;16799;50.844;5.304;2024-01-06T01:37:44;6.70;99.90
29939;DHT22;16799;50.844;5.304;2024-01-06T01:40:10;6.70;99.90
29939;DHT22;16799;50.844;5.304;2024-01-06T01:42:36;6.80;99.90
29939;DHT22;16799;50.844;5.304;2024-01-06T01:45:03;6.70;99.90
29939;DHT22;16799;50.844;5.304;2024-01-06T01:47:29;6.70;99.90
29939;DHT22;16799;50.844;5.304;2024-01-06T01:49:55;6.70;99.90
29939;DHT22;16799;50.844;5.304;2024-01-06T01:52:22;6.70;99.90
29939;DHT22;16799;50.844;5.304;2024-01-06T01:54:48;6.60;99.90
29939;DHT22;16799;50.844;5.304;2024-01-06T01:57:15;6.60;99.90
29939;DHT22;16799;50.844;5.304;2024-01-06T01:59:42;6.60;99.90
29939;DHT22;16799;50.844;5.304;2024-01-06T02:02:08;6.70;99.90
29939;DHT22;16799;50.844;5.304;2024-01-06T02:04:34;6.60;99.90
29939;DHT22;16799;50.844;5.304;2024-01-06T02:07:00;6.60;99.90
29939;DHT22;16799;50.844;5.304;2024-01-06T02:09:26;6.60;99.90
29939;DHT22;16799;50.844;5.304;2024-01-06T02:11:57;6.60;99.90
29939;DHT22;16799;50.844;5.304;2024-01-06T02:14:23;6.60;99.90
29939;DHT22;16799;50.844;5.304;2024-01-06T02:16:49;6.50;99.90
29939;DHT22;16799;50.844;5.304;2024-01-06T02:19:16;6.60;99.90
29939;DHT22;16799;50.844;5.304;2024-01-06T02:21:43;6.50;99.90
29939;DHT22;16799;50.844;5.304;2024-01-06T02:24:10;6.50;99.90
29939;DHT22;16799;50.844;5.304;2024-01-06T02:26:35;6.50;99.90
29939;DHT22;16799;50.844;5.304;2024-01-06T02:29:01;6.50;99.90
29939;DHT22;16799;50.844;5.304;2024-01-06T02:31:27;6.60;99.90
29939;DHT22;16799;50.844;5.304;2024-01-06T02:33:53;6.60;99.90
29939;DHT22;16799;50.844;5.304;2024-01-06T02:36:19;6.60;99.90
29939;DHT22;16799;50.844;5.304;2024-01-06T02:38:44;6.60;99.90
29939;DHT22;16799;50.844;5.304;2024-01-06T02:41:10;6.60;99.90
29939;DHT22;16799;50.844;5.304;2024-01-06T02:43:36;6.60;99.90
29939;DHT22;16799;50.844;5.304;2024-01-06T02:46:01;6.60;99.90
29939;DHT22;16799;50.844;5.304;2024-01-06T02:48:27;6.60;99.90
29939;DHT22;16799;50.844;5.304;2024-01-06T02:50:55;6.60;99.90
29939;DHT22;16799;50.844;5.304;2024-01-06T02:53:20;6.60;99.90
29939;DHT22;16799;50.844;5.304;2024-01-06T02:55:46;6.60;99.90
29939;DHT22;16799;50.844;5.304;2024-01-06T02:58:12;6.60;99.90
29939;DHT22;16799;50.844;5.304;2024-01-06T03:00:37;6.60;99.90
29939;DHT22;16799;50.844;5.304;2024-01-06T03:03:03;6.60;99.90
29939;DHT22;16799;50.844;5.304;2024-01-06T03:05:29;6.60;99.90
29939;DHT22;16799;50.844;5.304;2024-01-06T03:07:54;6.60;99.90
29939;DHT22;16799;50.844;5.304;2024-01-06T03:10:20;6.60;99.90
29939;DHT22;16799;50.844;5.304;2024-01-06T03:12:46;6.60;99.90
29939;DHT22;16799;50.844;5.304;2024-01-06T03:15:11;6.70;99.90
29939;DHT22;16799;50.844;5.304;2024-01-06T03:17:37;6.80;99.90
29939;DHT22;16799;50.844;5.304;2024-01-06T03:20:04;6.80;99.90
29939;DHT22;16799;50.844;5.304;2024-01-06T03:22:29;6.90;99.90
29939;DHT22;16799;50.844;5.304;2024-01-06T03:24:55;6.90;99.90
29939;DHT22;16799;50.844;5.304;2024-01-06T03:27:21;6.90;99.90
29939;DHT22;16799;50.844;5.304;2024-01-06T03:29:46;6.90;99.90
29939;DHT22;16799;50.844;5.304;2024-01-06T03:32:12;6.90;99.90
29939;DHT22;16799;50.844;5.304;2024-01-06T03:34:38;6.90;99.90
29939;DHT22;16799;50.844;5.304;2024-01-06T03:37:03;6.70;99.90
29939;DHT22;16799;50.844;5.304;2024-01-06T03:39:29;6.70;99.90
29939;DHT22;16799;50.844;5.304;2024-01-06T03:41:55;6.70;99.90
29939;DHT22;16799;50.844;5.304;2024-01-06T03:44:20;6.70;99.90
29939;DHT22;16799;50.844;5.304;2024-01-06T03:46:46;6.70;99.90
29939;DHT22;16799;50.844;5.304;2024-01-06T03:49:11;6.70;99.90
29939;DHT22;16799;50.844;5.304;2024-01-06T03:51:37;6.70;99.90
29939;DHT22;16799;50.844;5.304;2024-01-06T03:54:02;6.70;99.90
29939;DHT22;16799;50.844;5.304;2024-01-06T03:56:28;6.60;99.90
29939;DHT22;16799;50.844;5.304;2024-01-06T03:58:54;6.60;99.90
29939;DHT22;16799;50.844;5.304;2024-01-06T04:01:20;6.60;99.90
29939;DHT22;16799;50.844;5.304;2024-01-06T04:03:46;6.60;99.90
29939;DHT22;16799;50.844;5.304;2024-01-06T04:06:12;6.60;99.90
29939;DHT22;16799;50.844;5.304;2024-01-06T04:08:39;6.70;99.90
29939;DHT22;16799;50.844;5.304;2024-01-06T04:11:05;6.80;99.90
29939;DHT22;16799;50.844;5.304;2024-01-06T04:13:30;6.80;99.90
29939;DHT22;16799;50.844;5.304;2024-01-06T04:15:56;6.90;99.90
29939;DHT22;16799;50.844;5.304;2024-01-06T04:18:21;6.90;99.90
29939;DHT22;16799;50.844;5.304;2024-01-06T04:20:47;6.90;99.90
29939;DHT22;16799;50.844;5.304;2024-01-06T04:23:13;6.90;99.90
29939;DHT22;16799;50.844;5.304;2024-01-06T04:25:38;7.00;99.90
29939;DHT22;16799;50.844;5.304;2024-01-06T04:28:04;7.00;99.90
29939;DHT22;16799;50.844;5.304;2024-01-06T04:30:30;7.00;99.90
29939;DHT22;16799;50.844;5.304;2024-01-06T04:32:55;6.80;99.90
29939;DHT22;16799;50.844;5.304;2024-01-06T04:35:22;6.90;99.90
29939;DHT22;16799;50.844;5.304;2024-01-06T04:37:48;6.90;99.90
29939;DHT22;16799;50.844;5.304;2024-01-06T04:40:14;7.00;99.90
29939;DHT22;16799;50.844;5.304;2024-01-06T04:42:40;6.90;99.90
29939;DHT22;16799;50.844;5.304;2024-01-06T04:45:06;6.90;99.90
29939;DHT22;16799;50.844;5.304;2024-01-06T04:47:32;6.90;99.90
29939;DHT22;16799;50.844;5.304;2024-01-06T04:49:58;6.90;99.90
29939;DHT22;16799;50.844;5.304;2024-01-06T04:52:23;6.90;99.90
29939;DHT22;16799;50.844;5.304;2024-01-06T04:54:49;6.90;99.90
29939;DHT22;16799;50.844;5.304;2024-01-06T04:57:14;6.90;99.90
29939;DHT22;16799;50.844;5.304;2024-01-06T04:59:41;6.90;99.90
29939;DHT22;16799;50.844;5.304;2024-01-06T05:02:07;6.80;99.90
29939;DHT22;16799;50.844;5.304;2024-01-06T05:04:34;6.70;99.90
29939;DHT22;16799;50.844;5.304;2024-01-06T05:07:00;6.70;99.90
29939;DHT22;16799;50.844;5.304;2024-01-06T05:09:25;6.60;99.90
29939;DHT22;16799;50.844;5.304;2024-01-06T05:11:51;6.60;99.90
29939;DHT22;16799;50.844;5.304;2024-01-06T05:14:17;6.50;99.90
29939;DHT22;16799;50.844;5.304;2024-01-06T05:16:42;6.60;99.90
29939;DHT22;16799;50.844;5.304;2024-01-06T05:19:09;6.50;99.90
29939;DHT22;16799;50.844;5.304;2024-01-06T05:21:34;6.50;99.90
29939;DHT22;16799;50.844;5.304;2024-01-06T05:24:00;6.40;99.90
29939;DHT22;16799;50.844;5.304;2024-01-06T05:26:26;6.50;99.90
29939;DHT22;16799;50.844;5.304;2024-01-06T05:28:52;6.30;99.90
29939;DHT22;16799;50.844;5.304;2024-01-06T05:31:18;6.20;99.90
29939;DHT22;16799;50.844;5.304;2024-01-06T05:33:44;6.00;99.90
29939;DHT22;16799;50.844;5.304;2024-01-06T05:36:09;6.00;99.90
29939;DHT22;16799;50.844;5.304;2024-01-06T05:38:36;6.00;99.90
29939;DHT22;16799;50.844;5.304;2024-01-06T05:41:02;6.00;99.90
29939;DHT22;16799;50.844;5.304;2024-01-06T05:43:28;5.90;99.90
29939;DHT22;16799;50.844;5.304;2024-01-06T05:45:53;6.00;99.90
29939;DHT22;16799;50.844;5.304;2024-01-06T05:48:19;6.00;99.90
29939;DHT22;16799;50.844;5.304;2024-01-06T05:50:45;6.00;99.90
29939;DHT22;16799;50.844;5.304;2024-01-06T05:53:11;6.00;99.90
29939;DHT22;16799;50.844;5.304;2024-01-06T05:55:37;5.90;99.90
29939;DHT22;16799;50.844;5.304;2024-01-06T05:58:04;5.90;99.90
29939;DHT22;16799;50.844;5.304;2024-01-06T06:00:29;5.90;99.90
29939;DHT22;16799;50.844;5.304;2024-01-06T06:02:58;5.80;99.90
29939;DHT22;16799;50.844;5.304;2024-01-06T06:05:24;5.90;99.90
29939;DHT22;16799;50.844;5.304;2024-01-06T06:07:49;5.90;99.90
29939;DHT22;16799;50.844;5.304;2024-01-06T06:10:15;5.80;99.90
29939;DHT22;16799;50.844;5.304;2024-01-06T06:12:47;5.80;99.90
29939;DHT22;16799;50.844;5.304;2024-01-06T06:15:13;5.80;99.90
29939;DHT22;16799;50.844;5.304;2024-01-06T06:17:39;5.90;99.90
29939;DHT22;16799;50.844;5.304;2024-01-06T06:20:05;5.80;99.90
29939;DHT22;16799;50.844;5.304;2024-01-06T06:22:34;5.80;99.90
29939;DHT22;16799;50.844;5.304;2024-01-06T06:25:00;5.70;99.90
29939;DHT22;16799;50.844;5.304;2024-01-06T06:27:26;5.80;99.90
29939;DHT22;16799;50.844;5.304;2024-01-06T06:29:53;5.80;99.90
29939;DHT22;16799;50.844;5.304;2024-01-06T06:32:18;6.00;99.90
29939;DHT22;16799;50.844;5.304;2024-01-06T06:34:44;6.00;99.90
29939;DHT22;16799;50.844;5.304;2024-01-06T06:37:10;6.00;99.90
29939;DHT22;16799;50.844;5.304;2024-01-06T06:39:36;6.00;99.90
29939;DHT22;16799;50.844;5.304;2024-01-06T06:42:02;6.00;99.90
29939;DHT22;16799;50.844;5.304;2024-01-06T06:44:28;6.00;99.90
29939;DHT22;16799;50.844;5.304;2024-01-06T06:46:55;6.00;99.90
29939;DHT22;16799;50.844;5.304;2024-01-06T06:49:20;6.10;99.90
29939;DHT22;16799;50.844;5.304;2024-01-06T06:51:46;6.00;99.90
29939;DHT22;16799;50.844;5.304;2024-01-06T06:54:14;6.00;99.90
29939;DHT22;16799;50.844;5.304;2024-01-06T06:56:41;6.00;99.90
29939;DHT22;16799;50.844;5.304;2024-01-06T06:59:07;6.00;99.90
29939;DHT22;16799;50.844;5.304;2024-01-06T07:01:33;6.00;99.90
29939;DHT22;16799;50.844;5.304;2024-01-06T07:03:59;6.10;99.90
29939;DHT22;16799;50.844;5.304;2024-01-06T07:06:25;5.90;99.90
29939;DHT22;16799;50.844;5.304;2024-01-06T07:08:50;5.90;99.90
29939;DHT22;16799;50.844;5.304;2024-01-06T07:11:16;6.00;99.90
29939;DHT22;16799;50.844;5.304;2024-01-06T07:13:44;6.00;99.90
29939;DHT22;16799;50.844;5.304;2024-01-06T07:16:09;6.00;99.90
29939;DHT22;16799;50.844;5.304;2024-01-06T07:18:35;6.00;99.90
29939;DHT22;16799;50.844;5.304;2024-01-06T07:21:01;6.00;99.90
29939;DHT22;16799;50.844;5.304;2024-01-06T07:23:26;6.10;99.90
29939;DHT22;16799;50.844;5.304;2024-01-06T07:25:52;6.10;99.90
29939;DHT22;16799;50.844;5.304;2024-01-06T07:28:17;6.10;99.90
29939;DHT22;16799;50.844;5.304;2024-01-06T07:30:43;6.00;99.90
29939;DHT22;16799;50.844;5.304;2024-01-06T07:33:09;6.00;99.90
29939;DHT22;16799;50.844;5.304;2024-01-06T07:35:36;6.10;99.90
29939;DHT22;16799;50.844;5.304;2024-01-06T07:38:02;5.90;99.90
29939;DHT22;16799;50.844;5.304;2024-01-06T07:40:28;5.80;99.90
29939;DHT22;16799;50.844;5.304;2024-01-06T07:42:54;5.80;99.90
29939;DHT22;16799;50.844;5.304;2024-01-06T07:45:19;5.80;99.90
29939;DHT22;16799;50.844;5.304;2024-01-06T07:47:45;5.70;99.90
29939;DHT22;16799;50.844;5.304;2024-01-06T07:50:10;5.60;99.90
29939;DHT22;16799;50.844;5.304;2024-01-06T07:52:36;5.70;99.90
29939;DHT22;16799;50.844;5.304;2024-01-06T07:55:02;5.60;99.90
29939;DHT22;16799;50.844;5.304;2024-01-06T07:57:28;5.60;99.90
29939;DHT22;16799;50.844;5.304;2024-01-06T07:59:54;5.60;99.90
29939;DHT22;16799;50.844;5.304;2024-01-06T08:02:20;5.50;99.90
29939;DHT22;16799;50.844;5.304;2024-01-06T08:04:45;5.50;99.90
29939;DHT22;16799;50.844;5.304;2024-01-06T08:07:11;5.60;99.90
29939;DHT22;16799;50.844;5.304;2024-01-06T08:09:36;5.60;99.90
29939;DHT22;16799;50.844;5.304;2024-01-06T08:12:03;5.50;99.90
29939;DHT22;16799;50.844;5.304;2024-01-06T08:14:28;5.60;99.90
29939;DHT22;16799;50.844;5.304;2024-01-06T08:16:54;5.70;99.90
29939;DHT22;16799;50.844;5.304;2024-01-06T08:19:20;5.60;99.90
29939;DHT22;16799;50.844;5.304;2024-01-06T08:21:45;5.70;99.90
29939;DHT22;16799;50.844;5.304;2024-01-06T08:24:12;5.60;99.90
29939;DHT22;16799;50.844;5.304;2024-01-06T08:26:38;5.70;99.90
29939;DHT22;16799;50.844;5.304;2024-01-06T08:29:04;5.70;99.90
29939;DHT22;16799;50.844;5.304;2024-01-06T08:31:29;5.70;99.90
29939;DHT22;16799;50.844;5.304;2024-01-06T08:33:55;5.70;99.90
29939;DHT22;16799;50.844;5.304;2024-01-06T08:36:21;5.80;99.90
29939;DHT22;16799;50.844;5.304;2024-01-06T08:38:47;5.70;99.90
29939;DHT22;16799;50.844;5.304;2024-01-06T08:41:12;5.70;99.90
29939;DHT22;16799;50.844;5.304;2024-01-06T08:43:38;5.80;99.90
29939;DHT22;16799;50.844;5.304;2024-01-06T08:46:04;5.60;99.90
29939;DHT22;16799;50.844;5.304;2024-01-06T08:48:31;5.60;99.90
29939;DHT22;16799;50.844;5.304;2024-01-06T08:50:56;5.60;99.90
29939;DHT22;16799;50.844;5.304;2024-01-06T08:53:22;5.60;99.90
29939;DHT22;16799;50.844;5.304;2024-01-06T08:55:47;5.50;99.90
29939;DHT22;16799;50.844;5.304;2024-01-06T08:58:13;5.60;99.90
29939;DHT22;16799;50.844;5.304;2024-01-06T09:00:39;5.60;99.90
29939;DHT22;16799;50.844;5.304;2024-01-06T09:03:05;5.70;99.90
29939;DHT22;16799;50.844;5.304;2024-01-06T09:05:30;5.80;99.90
29939;DHT22;16799;50.844;5.304;2024-01-06T09:07:56;5.80;99.90
29939;DHT22;16799;50.844;5.304;2024-01-06T09:10:22;5.80;99.90
29939;DHT22;16799;50.844;5.304;2024-01-06T09:12:48;5.80;99.90
29939;DHT22;16799;50.844;5.304;2024-01-06T09:15:13;5.70;99.90
29939;DHT22;16799;50.844;5.304;2024-01-06T09:17:39;5.80;99.90
29939;DHT22;16799;50.844;5.304;2024-01-06T09:20:06;5.90;99.90
29939;DHT22;16799;50.844;5.304;2024-01-06T09:22:31;5.90;99.90
29939;DHT22;16799;50.844;5.304;2024-01-06T09:24:57;5.80;99.90
29939;DHT22;16799;50.844;5.304;2024-01-06T09:27:23;5.80;99.90
29939;DHT22;16799;50.844;5.304;2024-01-06T09:29:49;5.80;99.90
29939;DHT22;16799;50.844;5.304;2024-01-06T09:32:16;5.70;99.90
29939;DHT22;16799;50.844;5.304;2024-01-06T09:34:42;5.80;99.90
29939;DHT22;16799;50.844;5.304;2024-01-06T09:37:07;5.90;99.90
29939;DHT22;16799;50.844;5.304;2024-01-06T09:39:33;6.00;99.90
29939;DHT22;16799;50.844;5.304;2024-01-06T09:41:59;6.00;99.90
29939;DHT22;16799;50.844;5.304;2024-01-06T09:44:25;5.90;99.90
29939;DHT22;16799;50.844;5.304;2024-01-06T09:46:51;5.80;99.90
29939;DHT22;16799;50.844;5.304;2024-01-06T09:49:23;5.80;99.90
29939;DHT22;16799;50.844;5.304;2024-01-06T09:51:49;5.70;99.90
29939;DHT22;16799;50.844;5.304;2024-01-06T09:54:22;5.70;99.90
29939;DHT22;16799;50.844;5.304;2024-01-06T09:56:49;5.50;99.90
29939;DHT22;16799;50.844;5.304;2024-01-06T09:59:15;5.50;99.90
29939;DHT22;16799;50.844;5.304;2024-01-06T10:01:41;5.30;99.90
29939;DHT22;16799;50.844;5.304;2024-01-06T10:04:07;5.30;99.90
29939;DHT22;16799;50.844;5.304;2024-01-06T10:06:33;5.40;99.90
29939;DHT22;16799;50.844;5.304;2024-01-06T10:08:58;5.40;99.90
29939;DHT22;16799;50.844;5.304;2024-01-06T10:11:25;5.30;99.90
29939;DHT22;16799;50.844;5.304;2024-01-06T10:13:52;5.10;99.90
29939;DHT22;16799;50.844;5.304;2024-01-06T10:16:19;5.10;99.90
29939;DHT22;16799;50.844;5.304;2024-01-06T10:18:45;5.20;99.90
29939;DHT22;16799;50.844;5.304;2024-01-06T10:21:11;5.20;99.90
29939;DHT22;16799;50.844;5.304;2024-01-06T10:23:37;5.30;99.90
29939;DHT22;16799;50.844;5.304;2024-01-06T10:26:03;5.20;99.90
29939;DHT22;16799;50.844;5.304;2024-01-06T10:28:29;5.20;99.90
29939;DHT22;16799;50.844;5.304;2024-01-06T10:30:56;5.30;99.90
29939;DHT22;16799;50.844;5.304;2024-01-06T10:33:23;5.20;99.90
29939;DHT22;16799;50.844;5.304;2024-01-06T10:35:50;5.30;99.90
29939;DHT22;16799;50.844;5.304;2024-01-06T10:38:16;5.40;99.90
29939;DHT22;16799;50.844;5.304;2024-01-06T10:40:56;5.40;99.90
29939;DHT22;16799;50.844;5.304;2024-01-06T10:43:25;5.40;99.90
29939;DHT22;16799;50.844;5.304;2024-01-06T10:45:53;5.40;99.90
29939;DHT22;16799;50.844;5.304;2024-01-06T10:48:21;5.50;99.90
29939;DHT22;16799;50.844;5.304;2024-01-06T10:50:49;5.50;99.90
29939;DHT22;16799;50.844;5.304;2024-01-06T10:53:17;5.50;99.90
29939;DHT22;16799;50.844;5.304;2024-01-06T10:55:45;5.60;99.90
29939;DHT22;16799;50.844;5.304;2024-01-06T10:58:12;5.60;99.90
29939;DHT22;16799;50.844;5.304;2024-01-06T11:00:41;5.70;99.90
29939;DHT22;16799;50.844;5.304;2024-01-06T11:03:09;5.80;99.90
29939;DHT22;16799;50.844;5.304;2024-01-06T11:05:36;5.80;99.90
29939;DHT22;16799;50.844;5.304;2024-01-06T11:08:03;5.80;99.90
29939;DHT22;16799;50.844;5.304;2024-01-06T11:10:30;5.80;99.90
29939;DHT22;16799;50.844;5.304;2024-01-06T11:13:09;5.80;99.90
29939;DHT22;16799;50.844;5.304;2024-01-06T11:15:43;5.90;99.90
29939;DHT22;16799;50.844;5.304;2024-01-06T11:18:10;5.90;99.90
29939;DHT22;16799;50.844;5.304;2024-01-06T11:21:27;5.80;99.90
29939;DHT22;16799;50.844;5.304;2024-01-06T11:24:19;5.90;99.90
29939;DHT22;16799;50.844;5.304;2024-01-06T11:26:51;6.00;99.90
29939;DHT22;16799;50.844;5.304;2024-01-06T11:29:18;5.80;99.90
29939;DHT22;16799;50.844;5.304;2024-01-06T11:34:52;5.80;99.90
29939;DHT22;16799;50.844;5.304;2024-01-06T11:37:35;5.80;99.90
29939;DHT22;16799;50.844;5.304;2024-01-06T11:43:08;5.90;99.90
29939;DHT22;16799;50.844;5.304;2024-01-06T11:45:36;6.10;99.90
29939;DHT22;16799;50.844;5.304;2024-01-06T11:48:10;6.40;99.90
29939;DHT22;16799;50.844;5.304;2024-01-06T11:50:39;6.50;99.90
29939;DHT22;16799;50.844;5.304;2024-01-06T11:53:05;6.70;99.90
29939;DHT22;16799;50.844;5.304;2024-01-06T11:55:33;6.60;99.90
29939;DHT22;16799;50.844;5.304;2024-01-06T11:58:00;6.50;99.90
29939;DHT22;16799;50.844;5.304;2024-01-06T12:00:34;6.30;99.90
29939;DHT22;16799;50.844;5.304;2024-01-06T12:03:04;6.00;99.90
29939;DHT22;16799;50.844;5.304;2024-01-06T12:05:30;5.80;99.90
29939;DHT22;16799;50.844;5.304;2024-01-06T12:07:58;5.80;99.90
29939;DHT22;16799;50.844;5.304;2024-01-06T12:10:26;5.80;99.90
29939;DHT22;16799;50.844;5.304;2024-01-06T12:15:24;5.80;99.90
29939;DHT22;16799;50.844;5.304;2024-01-06T12:17:50;5.70;99.90
29939;DHT22;16799;50.844;5.304;2024-01-06T12:20:16;5.70;99.90
29939;DHT22;16799;50.844;5.304;2024-01-06T12:22:42;5.80;99.90
29939;DHT22;16799;50.844;5.304;2024-01-06T12:25:09;5.80;99.90
29939;DHT22;16799;50.844;5.304;2024-01-06T12:27:35;5.60;99.90
29939;DHT22;16799;50.844;5.304;2024-01-06T12:30:02;5.70;99.90
29939;DHT22;16799;50.844;5.304;2024-01-06T12:32:28;5.60;99.90
29939;DHT22;16799;50.844;5.304;2024-01-06T12:34:54;5.60;99.90
29939;DHT22;16799;50.844;5.304;2024-01-06T12:37:23;5.60;99.90
29939;DHT22;16799;50.844;5.304;2024-01-06T12:39:50;5.80;99.90
29939;DHT22;16799;50.844;5.304;2024-01-06T12:42:17;5.80;99.90
29939;DHT22;16799;50.844;5.304;2024-01-06T12:44:43;5.70;99.90
29939;DHT22;16799;50.844;5.304;2024-01-06T12:47:09;5.80;99.90
29939;DHT22;16799;50.844;5.304;2024-01-06T12:49:37;5.80;99.90
29939;DHT22;16799;50.844;5.304;2024-01-06T12:52:03;5.90;99.90
29939;DHT22;16799;50.844;5.304;2024-01-06T12:54:29;5.90;99.90
29939;DHT22;16799;50.844;5.304;2024-01-06T12:56:55;5.90;99.90
29939;DHT22;16799;50.844;5.304;2024-01-06T12:59:21;5.90;99.90
29939;DHT22;16799;50.844;5.304;2024-01-06T13:01:46;6.00;99.90
29939;DHT22;16799;50.844;5.304;2024-01-06T13:04:12;6.00;99.90
29939;DHT22;16799;50.844;5.304;2024-01-06T13:06:38;6.00;99.90
29939;DHT22;16799;50.844;5.304;2024-01-06T13:09:05;6.00;99.90
29939;DHT22;16799;50.844;5.304;2024-01-06T13:11:34;6.00;99.90
29939;DHT22;16799;50.844;5.304;2024-01-06T13:14:00;5.90;99.90
29939;DHT22;16799;50.844;5.304;2024-01-06T13:16:27;5.90;99.90
29939;DHT22;16799;50.844;5.304;2024-01-06T13:18:52;6.00;99.90
29939;DHT22;16799;50.844;5.304;2024-01-06T13:21:18;5.90;99.90
29939;DHT22;16799;50.844;5.304;2024-01-06T13:23:44;6.00;99.90
29939;DHT22;16799;50.844;5.304;2024-01-06T13:26:10;5.90;99.90
29939;DHT22;16799;50.844;5.304;2024-01-06T13:28:35;5.90;99.90
29939;DHT22;16799;50.844;5.304;2024-01-06T13:31:01;5.90;99.90
29939;DHT22;16799;50.844;5.304;2024-01-06T13:33:27;5.90;99.90
29939;DHT22;16799;50.844;5.304;2024-01-06T13:35:54;5.80;99.90
29939;DHT22;16799;50.844;5.304;2024-01-06T13:38:20;5.80;99.90
29939;DHT22;16799;50.844;5.304;2024-01-06T13:40:47;5.90;99.90
29939;DHT22;16799;50.844;5.304;2024-01-06T13:43:13;5.90;99.90
29939;DHT22;16799;50.844;5.304;2024-01-06T13:45:42;5.90;99.90
29939;DHT22;16799;50.844;5.304;2024-01-06T13:48:08;5.90;99.90
29939;DHT22;16799;50.844;5.304;2024-01-06T13:50:34;5.80;99.90
29939;DHT22;16799;50.844;5.304;2024-01-06T13:53:00;5.80;99.90
29939;DHT22;16799;50.844;5.304;2024-01-06T13:55:28;5.80;99.90
29939;DHT22;16799;50.844;5.304;2024-01-06T13:57:54;5.70;99.90
29939;DHT22;16799;50.844;5.304;2024-01-06T14:00:20;5.60;99.90
29939;DHT22;16799;50.844;5.304;2024-01-06T14:02:46;5.50;99.90
29939;DHT22;16799;50.844;5.304;2024-01-06T14:05:13;5.30;99.90
29939;DHT22;16799;50.844;5.304;2024-01-06T14:07:39;5.40;99.90
29939;DHT22;16799;50.844;5.304;2024-01-06T14:10:06;5.60;99.90
29939;DHT22;16799;50.844;5.304;2024-01-06T14:12:32;5.60;99.90
29939;DHT22;16799;50.844;5.304;2024-01-06T14:15:00;5.70;99.90
29939;DHT22;16799;50.844;5.304;2024-01-06T14:17:26;5.60;99.90
29939;DHT22;16799;50.844;5.304;2024-01-06T14:19:52;5.50;99.90
29939;DHT22;16799;50.844;5.304;2024-01-06T14:22:18;5.50;99.90
29939;DHT22;16799;50.844;5.304;2024-01-06T14:24:44;5.50;99.90
29939;DHT22;16799;50.844;5.304;2024-01-06T14:27:10;5.50;99.90
29939;DHT22;16799;50.844;5.304;2024-01-06T14:29:35;5.50;99.90
29939;DHT22;16799;50.844;5.304;2024-01-06T14:32:01;5.50;99.90
29939;DHT22;16799;50.844;5.304;2024-01-06T14:34:27;5.50;99.90
29939;DHT22;16799;50.844;5.304;2024-01-06T14:36:53;5.50;99.90
29939;DHT22;16799;50.844;5.304;2024-01-06T14:39:18;5.40;99.90
29939;DHT22;16799;50.844;5.304;2024-01-06T14:41:48;5.50;99.90
29939;DHT22;16799;50.844;5.304;2024-01-06T14:44:14;5.40;99.90
29939;DHT22;16799;50.844;5.304;2024-01-06T14:46:41;5.30;99.90
29939;DHT22;16799;50.844;5.304;2024-01-06T14:49:07;5.20;99.90
29939;DHT22;16799;50.844;5.304;2024-01-06T14:51:33;5.10;99.90
29939;DHT22;16799;50.844;5.304;2024-01-06T14:53:58;5.10;99.90
29939;DHT22;16799;50.844;5.304;2024-01-06T14:56:24;5.00;99.90
29939;DHT22;16799;50.844;5.304;2024-01-06T14:58:51;5.00;99.90
29939;DHT22;16799;50.844;5.304;2024-01-06T15:01:17;5.00;99.90
29939;DHT22;16799;50.844;5.304;2024-01-06T15:03:43;5.00;99.90
29939;DHT22;16799;50.844;5.304;2024-01-06T15:06:10;5.00;99.90
29939;DHT22;16799;50.844;5.304;2024-01-06T15:08:35;5.00;99.90
29939;DHT22;16799;50.844;5.304;2024-01-06T15:11:01;5.10;99.90
29939;DHT22;16799;50.844;5.304;2024-01-06T15:13:28;5.10;99.90
29939;DHT22;16799;50.844;5.304;2024-01-06T15:15:54;5.10;99.90
29939;DHT22;16799;50.844;5.304;2024-01-06T15:18:20;5.00;99.90
29939;DHT22;16799;50.844;5.304;2024-01-06T15:20:46;5.10;99.90
29939;DHT22;16799;50.844;5.304;2024-01-06T15:23:12;5.10;99.90
29939;DHT22;16799;50.844;5.304;2024-01-06T15:25:38;5.10;99.90
29939;DHT22;16799;50.844;5.304;2024-01-06T15:28:04;5.10;99.90
29939;DHT22;16799;50.844;5.304;2024-01-06T15:30:29;5.20;99.90
29939;DHT22;16799;50.844;5.304;2024-01-06T15:32:55;5.20;99.90
29939;DHT22;16799;50.844;5.304;2024-01-06T15:35:21;5.10;99.90
29939;DHT22;16799;50.844;5.304;2024-01-06T15:37:46;5.10;99.90
29939;DHT22;16799;50.844;5.304;2024-01-06T15:40:12;5.10;99.90
29939;DHT22;16799;50.844;5.304;2024-01-06T15:42:39;5.00;99.90
29939;DHT22;16799;50.844;5.304;2024-01-06T15:45:07;5.00;99.90
29939;DHT22;16799;50.844;5.304;2024-01-06T15:47:33;5.10;99.90